createdAt,value
2023-03-24T00:01:06.937Z,51.62
2023-03-24T00:03:33.631Z,51.64
2023-03-24T00:06:03.164Z,51.98
2023-03-24T00:08:31.782Z,52.07
2023-03-24T00:11:01.635Z,51.62
2023-03-24T00:13:29.341Z,51.85
2023-03-24T00:15:56.631Z,51.91
2023-03-24T00:18:25.889Z,51.93
2023-03-24T00:20:58.673Z,51.61
2023-03-24T00:23:27.878Z,51.79
2023-03-24T00:26:04.952Z,51.96
2023-03-24T00:28:33.315Z,51.59
2023-03-24T00:31:02.191Z,52.00
2023-03-24T00:33:34.869Z,52.00
2023-03-24T00:36:07.011Z,51.97
2023-03-24T00:38:34.804Z,52.24
2023-03-24T00:41:02.368Z,51.90
2023-03-24T00:43:29.656Z,52.51
2023-03-24T00:46:05.974Z,52.16
2023-03-24T00:48:33.002Z,52.19
2023-03-24T00:51:02.937Z,52.02
2023-03-24T00:53:29.729Z,52.17
2023-03-24T00:55:58.405Z,52.10
2023-03-24T00:58:25.459Z,51.99
2023-03-24T01:00:56.959Z,52.31
2023-03-24T01:03:27.693Z,52.06
2023-03-24T01:05:57.786Z,52.18
2023-03-24T01:08:25.648Z,52.23
2023-03-24T01:10:54.282Z,52.19
2023-03-24T01:13:23.687Z,52.33
2023-03-24T01:15:51.202Z,52.40
2023-03-24T01:18:18.450Z,52.23
2023-03-24T01:20:47.141Z,52.50
2023-03-24T01:23:16.386Z,52.37
2023-03-24T01:25:45.903Z,52.50
2023-03-24T01:28:13.452Z,52.18
2023-03-24T01:30:40.512Z,52.43
2023-03-24T01:33:07.942Z,52.05
2023-03-24T01:35:35.348Z,52.37
2023-03-24T01:38:06.454Z,52.30
2023-03-24T01:40:34.774Z,52.79
2023-03-24T01:43:01.412Z,52.75
2023-03-24T01:45:42.562Z,52.80
2023-03-24T01:48:18.808Z,52.74
2023-03-24T01:51:04.594Z,52.41
2023-03-24T01:53:34.018Z,52.56
2023-03-24T01:56:02.765Z,53.04
2023-03-24T01:58:32.384Z,52.55
2023-03-24T02:00:59.156Z,53.05
2023-03-24T02:03:29.994Z,52.85
2023-03-24T02:05:57.698Z,52.72
2023-03-24T02:08:48.218Z,52.62
2023-03-24T02:11:14.877Z,53.26
2023-03-24T02:13:41.482Z,53.28
2023-03-24T02:16:26.018Z,53.21
2023-03-24T02:19:14.803Z,53.22
2023-03-24T02:21:59.699Z,53.35
2023-03-24T02:25:04.394Z,53.20
2023-03-24T02:27:52.329Z,53.23
2023-03-24T02:31:19.745Z,53.40
2023-03-24T02:33:52.290Z,53.21
2023-03-24T02:36:21.749Z,53.48
2023-03-24T02:39:25.810Z,53.72
2023-03-24T02:42:31.200Z,53.59
2023-03-24T02:45:35.271Z,53.48
2023-03-24T02:48:20.616Z,53.51
2023-03-24T02:51:08.507Z,53.53
2023-03-24T02:54:23.135Z,53.67
2023-03-24T02:56:58.392Z,53.39
2023-03-24T02:59:44.925Z,53.57
2023-03-24T03:02:20.290Z,53.90
2023-03-24T03:04:52.699Z,53.27
2023-03-24T03:07:25.053Z,53.64
2023-03-24T03:09:59.958Z,53.34
2023-03-24T03:12:31.681Z,53.31
2023-03-24T03:15:03.614Z,53.57
2023-03-24T03:17:35.647Z,53.62
2023-03-24T03:20:11.249Z,53.44
2023-03-24T03:22:45.339Z,53.67
2023-03-24T03:25:16.639Z,53.49
2023-03-24T03:27:46.957Z,53.52
2023-03-24T03:30:22.330Z,53.90
2023-03-24T03:32:55.427Z,53.72
2023-03-24T03:35:51.017Z,53.59
2023-03-24T03:38:26.325Z,53.38
2023-03-24T03:41:00.218Z,53.72
2023-03-24T03:43:28.425Z,53.98
2023-03-24T03:45:55.709Z,53.32
2023-03-24T03:48:26.373Z,53.83
2023-03-24T03:51:06.275Z,53.43
2023-03-24T03:53:51.456Z,53.64
2023-03-24T03:56:20.648Z,53.25
2023-03-24T03:58:47.294Z,53.38
2023-03-24T04:01:18.664Z,53.32
2023-03-24T04:04:06.549Z,53.55
2023-03-24T04:06:36.100Z,53.39
2023-03-24T04:09:28.615Z,53.44
2023-03-24T04:12:02.699Z,53.31
2023-03-24T04:14:46.039Z,53.44
2023-03-24T04:17:46.507Z,53.41
2023-03-24T04:20:24.244Z,53.05
2023-03-24T04:23:26.400Z,53.45
2023-03-24T04:26:34.336Z,53.26
2023-03-24T04:29:09.968Z,53.33
2023-03-24T04:31:49.171Z,53.45
2023-03-24T04:34:22.056Z,53.33
2023-03-24T04:36:54.576Z,53.64
2023-03-24T04:39:28.147Z,53.42
2023-03-24T04:41:57.840Z,53.50
2023-03-24T04:44:26.498Z,53.30
2023-03-24T04:46:57.688Z,53.45
2023-03-24T04:49:25.426Z,53.52
2023-03-24T04:51:52.513Z,53.04
2023-03-24T04:54:20.491Z,53.41
2023-03-24T04:56:50.912Z,53.66
2023-03-24T04:59:18.495Z,53.29
2023-03-24T05:01:51.724Z,53.24
2023-03-24T05:04:28.157Z,53.32
2023-03-24T05:06:55.100Z,53.37
2023-03-24T05:09:23.663Z,53.58
2023-03-24T05:11:50.718Z,53.47
2023-03-24T05:14:17.249Z,53.20
2023-03-24T05:16:43.888Z,53.32
2023-03-24T05:19:11.082Z,52.80
2023-03-24T05:21:37.733Z,52.89
2023-03-24T05:24:04.674Z,53.40
2023-03-24T05:26:33.125Z,53.08
2023-03-24T05:29:00.347Z,53.36
2023-03-24T05:31:27.196Z,52.84
2023-03-24T05:33:53.963Z,53.29
2023-03-24T05:36:20.514Z,53.04
2023-03-24T05:38:47.130Z,52.97
2023-03-24T05:41:13.729Z,52.99
2023-03-24T05:43:40.286Z,53.28
2023-03-24T05:46:07.131Z,53.41
2023-03-24T05:48:33.695Z,52.86
2023-03-24T05:51:00.274Z,52.73
2023-03-24T05:53:26.813Z,53.05
2023-03-24T05:55:53.686Z,52.99
2023-03-24T05:58:21.464Z,52.73
2023-03-24T06:00:48.389Z,53.00
2023-03-24T06:03:17.272Z,52.60
2023-03-24T06:05:45.775Z,52.34
2023-03-24T06:08:12.699Z,52.97
2023-03-24T06:10:40.661Z,52.68
2023-03-24T06:13:09.126Z,52.72
2023-03-24T06:15:36.255Z,52.77
2023-03-24T06:18:05.389Z,52.81
2023-03-24T06:20:32.293Z,52.41
2023-03-24T06:22:59.906Z,52.47
2023-03-24T06:25:28.576Z,52.39
2023-03-24T06:27:55.288Z,52.28
2023-03-24T06:30:21.824Z,52.17
2023-03-24T06:32:48.713Z,52.40
2023-03-24T06:35:17.057Z,52.79
2023-03-24T06:37:44.716Z,52.62
2023-03-24T06:40:15.987Z,52.31
2023-03-24T06:42:42.648Z,52.31
2023-03-24T06:45:10.033Z,52.58
2023-03-24T06:47:37.273Z,52.06
2023-03-24T06:50:05.594Z,52.21
2023-03-24T06:52:32.224Z,52.07
2023-03-24T06:54:58.952Z,52.44
2023-03-24T06:57:26.023Z,52.08
2023-03-24T06:59:53.346Z,52.39
2023-03-24T07:02:19.926Z,52.46
2023-03-24T07:04:46.505Z,51.93
2023-03-24T07:07:52.800Z,52.16
2023-03-24T07:09:59.814Z,52.00
2023-03-24T07:12:26.406Z,51.86
2023-03-24T07:14:52.936Z,52.16
2023-03-24T07:17:19.410Z,52.39
2023-03-24T07:19:45.990Z,51.98
2023-03-24T07:22:12.515Z,52.12
2023-03-24T07:24:39.028Z,52.00
2023-03-24T07:27:06.745Z,51.54
2023-03-24T07:29:33.247Z,51.58
2023-03-24T07:32:00.998Z,51.49
2023-03-24T07:34:28.608Z,51.74
2023-03-24T07:36:56.081Z,51.43
2023-03-24T07:39:22.629Z,51.88
2023-03-24T07:41:49.184Z,51.78
2023-03-24T07:44:15.904Z,51.56
2023-03-24T07:46:42.558Z,51.67
2023-03-24T07:49:18.975Z,51.58
2023-03-24T07:51:46.540Z,51.17
2023-03-24T07:54:13.272Z,51.58
2023-03-24T07:56:39.825Z,51.25
2023-03-24T07:59:06.518Z,51.50
2023-03-24T08:01:33.118Z,51.74
2023-03-24T08:03:59.989Z,51.64
2023-03-24T08:06:26.789Z,51.79
2023-03-24T08:08:53.303Z,51.31
2023-03-24T08:11:19.811Z,51.37
2023-03-24T08:13:46.401Z,51.13
2023-03-24T08:16:12.986Z,51.46
2023-03-24T08:18:39.581Z,51.21
2023-03-24T08:21:06.582Z,51.06
2023-03-24T08:23:33.336Z,51.36
2023-03-24T08:25:59.866Z,51.29
2023-03-24T08:28:26.425Z,51.02
2023-03-24T08:30:53.106Z,50.77
2023-03-24T08:33:19.698Z,50.94
2023-03-24T08:35:46.820Z,51.38
2023-03-24T08:38:18.116Z,51.17
2023-03-24T08:40:45.485Z,50.96
2023-03-24T08:43:15.314Z,51.28
2023-03-24T08:45:41.871Z,50.87
2023-03-24T08:48:09.117Z,51.08
2023-03-24T08:50:39.230Z,51.03
2023-03-24T08:53:06.170Z,50.74
2023-03-24T08:55:32.754Z,50.52
2023-03-24T08:57:59.747Z,50.73
2023-03-24T09:00:29.071Z,50.65
2023-03-24T09:02:56.582Z,51.01
2023-03-24T09:05:40.998Z,50.87
2023-03-24T09:08:12.412Z,50.29
2023-03-24T09:10:39.770Z,50.41
2023-03-24T09:13:06.368Z,49.91
2023-03-24T09:15:33.740Z,50.33
2023-03-24T09:18:00.900Z,49.81
2023-03-24T09:20:27.556Z,50.53
2023-03-24T09:22:54.195Z,50.31
2023-03-24T09:25:21.514Z,50.26
2023-03-24T09:27:48.397Z,50.37
2023-03-24T09:30:17.524Z,50.29
2023-03-24T09:32:45.470Z,50.17
2023-03-24T09:35:12.078Z,50.67
2023-03-24T09:37:39.364Z,50.57
2023-03-24T09:40:07.805Z,50.41
2023-03-24T09:42:38.662Z,50.42
2023-03-24T09:45:13.533Z,50.16
2023-03-24T09:47:51.211Z,50.23
2023-03-24T09:50:22.820Z,49.60
2023-03-24T09:52:54.780Z,50.46
2023-03-24T09:55:25.388Z,49.92
2023-03-24T09:57:53.779Z,50.18
2023-03-24T10:00:30.528Z,50.04
2023-03-24T10:03:01.865Z,49.36
2023-03-24T10:05:47.367Z,49.53
2023-03-24T10:08:33.577Z,49.96
2023-03-24T10:11:11.306Z,49.76
2023-03-24T10:14:04.365Z,49.20
2023-03-24T10:16:38.987Z,50.01
2023-03-24T10:19:17.521Z,49.53
2023-03-24T10:22:13.989Z,49.11
2023-03-24T10:25:06.529Z,49.35
2023-03-24T10:27:45.293Z,49.26
2023-03-24T10:30:17.692Z,49.26
2023-03-24T10:32:45.349Z,49.31
2023-03-24T10:35:37.297Z,49.07
2023-03-24T10:38:19.829Z,49.20
2023-03-24T10:40:47.953Z,49.27
2023-03-24T10:43:17.299Z,49.25
2023-03-24T10:45:47.490Z,49.01
2023-03-24T10:48:33.150Z,49.08
2023-03-24T10:50:59.981Z,48.95
2023-03-24T10:53:27.341Z,49.23
2023-03-24T10:55:54.001Z,49.15
2023-03-24T10:58:39.752Z,49.80
2023-03-24T11:01:23.529Z,49.33
2023-03-24T11:03:50.930Z,49.37
2023-03-24T11:06:20.690Z,49.10
2023-03-24T11:08:47.531Z,49.45
2023-03-24T11:11:31.654Z,49.10
2023-03-24T11:14:04.544Z,49.62
2023-03-24T11:16:36.677Z,48.97
2023-03-24T11:19:23.316Z,48.81
2023-03-24T11:21:52.220Z,48.99
2023-03-24T11:24:20.650Z,48.91
2023-03-24T11:27:03.217Z,49.05
2023-03-24T11:29:38.513Z,49.24
2023-03-24T11:32:14.223Z,49.93
2023-03-24T11:34:48.895Z,49.51
2023-03-24T11:37:22.210Z,48.96
2023-03-24T11:40:14.585Z,49.65
2023-03-24T11:42:45.425Z,48.79
2023-03-24T11:45:35.834Z,49.61
2023-03-24T11:48:11.330Z,49.10
2023-03-24T11:50:39.303Z,49.57
2023-03-24T11:53:14.739Z,49.07
2023-03-24T11:55:49.521Z,49.49
2023-03-24T11:58:44.154Z,48.59
2023-03-24T12:01:28.533Z,49.30
2023-03-24T12:04:13.031Z,48.98
2023-03-24T12:06:58.753Z,49.65
2023-03-24T12:09:32.502Z,49.39
2023-03-24T12:12:14.001Z,49.60
2023-03-24T12:15:28.721Z,49.08
2023-03-24T12:18:20.204Z,49.29
2023-03-24T12:20:53.948Z,49.56
2023-03-24T12:23:32.933Z,49.32
2023-03-24T12:26:32.997Z,50.03
2023-03-24T12:29:15.108Z,49.54
2023-03-24T12:32:03.382Z,50.09
2023-03-24T12:34:42.472Z,50.49
2023-03-24T12:37:42.850Z,50.88
2023-03-24T12:40:13.004Z,50.47
2023-03-24T12:42:42.018Z,50.63
2023-03-24T12:45:20.667Z,50.39
2023-03-24T12:48:05.351Z,50.39
2023-03-24T12:50:58.979Z,50.71
2023-03-24T12:53:45.811Z,50.69
2023-03-24T12:56:19.118Z,51.40
2023-03-24T12:58:50.340Z,51.61
2023-03-24T13:01:23.551Z,51.58
2023-03-24T13:04:01.056Z,51.54
2023-03-24T13:06:36.346Z,51.59
2023-03-24T13:09:33.337Z,51.60
2023-03-24T13:12:22.641Z,51.61
2023-03-24T13:15:06.998Z,51.90
2023-03-24T13:17:39.188Z,52.28
2023-03-24T13:20:12.592Z,51.90
2023-03-24T13:22:39.954Z,52.07
2023-03-24T13:25:25.100Z,52.06
2023-03-24T13:27:57.475Z,51.74
2023-03-24T13:30:32.485Z,52.08
2023-03-24T13:33:16.935Z,51.54
2023-03-24T13:36:17.267Z,51.68
2023-03-24T13:38:51.590Z,51.83
2023-03-24T13:41:23.985Z,51.44
2023-03-24T13:43:57.639Z,51.88
2023-03-24T13:46:24.419Z,51.39
2023-03-24T13:48:54.409Z,51.29
2023-03-24T13:51:32.780Z,51.45
2023-03-24T13:54:07.034Z,51.37
2023-03-24T13:56:42.536Z,51.37
2023-03-24T13:59:25.459Z,51.35
2023-03-24T14:02:17.628Z,50.87
2023-03-24T14:04:45.778Z,50.89
2023-03-24T14:07:49.980Z,49.84
2023-03-24T14:10:16.583Z,49.63
2023-03-24T14:13:01.798Z,49.07
2023-03-24T14:15:32.825Z,48.62
2023-03-24T14:18:23.481Z,48.24
2023-03-24T14:20:56.350Z,48.19
2023-03-24T14:23:22.970Z,48.63
2023-03-24T14:25:55.600Z,48.65
2023-03-24T14:28:41.586Z,48.47
2023-03-24T14:31:16.032Z,48.72
2023-03-24T14:34:02.138Z,48.33
2023-03-24T14:36:39.579Z,48.35
2023-03-24T14:39:27.525Z,49.22
2023-03-24T14:41:55.889Z,49.35
2023-03-24T14:44:51.920Z,49.03
2023-03-24T14:47:21.452Z,48.86
2023-03-24T14:49:50.668Z,49.43
2023-03-24T14:52:24.925Z,49.43
2023-03-24T14:55:05.903Z,49.07
2023-03-24T14:57:40.022Z,48.78
2023-03-24T15:00:24.952Z,49.11
2023-03-24T15:03:24.094Z,49.01
2023-03-24T15:05:50.993Z,49.14
2023-03-24T15:08:23.521Z,49.39
2023-03-24T15:11:05.212Z,49.31
2023-03-24T15:13:37.012Z,48.97
2023-03-24T15:16:07.081Z,49.20
2023-03-24T15:18:34.776Z,48.82
2023-03-24T15:21:01.318Z,49.28
2023-03-24T15:23:28.447Z,49.63
2023-03-24T15:25:56.364Z,49.15
2023-03-24T15:28:28.303Z,49.35
2023-03-24T15:30:56.586Z,48.98
2023-03-24T15:33:23.615Z,48.80
2023-03-24T15:35:56.839Z,48.83
2023-03-24T15:38:31.976Z,48.87
2023-03-24T15:41:05.348Z,49.00
2023-03-24T15:43:32.038Z,48.66
2023-03-24T15:46:11.934Z,49.10
2023-03-24T15:48:39.579Z,48.89
2023-03-24T15:51:09.229Z,48.86
2023-03-24T15:53:49.015Z,48.54
2023-03-24T15:56:17.950Z,49.04
2023-03-24T15:58:57.516Z,48.68
2023-03-24T16:01:35.821Z,49.68
2023-03-24T16:04:06.010Z,49.73
2023-03-24T16:06:35.492Z,49.59
2023-03-24T16:09:06.737Z,49.66
2023-03-24T16:11:33.287Z,49.34
2023-03-24T16:14:18.344Z,49.41
2023-03-24T16:16:44.935Z,49.16
2023-03-24T16:19:12.174Z,49.05
2023-03-24T16:21:39.024Z,49.42
2023-03-24T16:24:05.802Z,50.08
2023-03-24T16:26:33.295Z,49.90
2023-03-24T16:29:14.470Z,49.49
2023-03-24T16:31:41.051Z,50.07
2023-03-24T16:34:07.585Z,49.61
2023-03-24T16:36:34.234Z,50.07
2023-03-24T16:39:05.022Z,50.22
2023-03-24T16:41:31.583Z,49.73
2023-03-24T16:43:58.127Z,49.60
2023-03-24T16:46:27.653Z,50.17
2023-03-24T16:48:54.857Z,49.91
2023-03-24T16:51:21.936Z,50.23
2023-03-24T16:53:48.890Z,49.38
2023-03-24T16:56:18.872Z,49.95
2023-03-24T16:58:48.739Z,49.56
2023-03-24T17:01:26.417Z,49.69
2023-03-24T17:03:58.514Z,49.05
2023-03-24T17:06:26.977Z,49.60
2023-03-24T17:08:53.791Z,48.95
2023-03-24T17:11:34.016Z,49.44
2023-03-24T17:14:04.879Z,48.69
2023-03-24T17:16:36.358Z,49.35
2023-03-24T17:19:06.417Z,48.93
2023-03-24T17:21:37.189Z,48.86
2023-03-24T17:24:03.932Z,49.13
2023-03-24T17:26:31.962Z,48.98
2023-03-24T17:28:58.780Z,48.79
2023-03-24T17:31:25.336Z,48.50
2023-03-24T17:33:51.908Z,48.38
2023-03-24T17:36:18.444Z,47.96
2023-03-24T17:38:47.974Z,47.97
2023-03-24T17:41:14.876Z,48.42
2023-03-24T17:43:41.403Z,47.96
2023-03-24T17:46:08.361Z,48.63
2023-03-24T17:48:37.639Z,48.41
2023-03-24T17:51:05.072Z,48.62
2023-03-24T17:53:33.534Z,48.02
2023-03-24T17:56:07.135Z,48.29
2023-03-24T17:58:35.797Z,48.04
2023-03-24T18:01:07.888Z,48.20
2023-03-24T18:03:37.577Z,48.10
2023-03-24T18:06:12.567Z,48.59
2023-03-24T18:08:39.625Z,48.78
2023-03-24T18:11:09.158Z,48.53
2023-03-24T18:13:36.149Z,48.35
2023-03-24T18:16:17.724Z,48.34
2023-03-24T18:18:47.152Z,47.86
2023-03-24T18:21:13.792Z,48.04
2023-03-24T18:23:40.316Z,48.06
2023-03-24T18:26:08.669Z,48.17
2023-03-24T18:28:37.534Z,48.29
2023-03-24T18:31:16.449Z,48.20
2023-03-24T18:33:45.885Z,47.82
2023-03-24T18:36:16.491Z,47.75
2023-03-24T18:38:43.601Z,48.18
2023-03-24T18:41:12.712Z,48.11
2023-03-24T18:43:41.006Z,47.80
2023-03-24T18:46:11.403Z,47.38
2023-03-24T18:48:39.652Z,47.50
2023-03-24T18:51:06.416Z,47.66
2023-03-24T18:53:35.805Z,47.55
2023-03-24T18:56:04.133Z,47.56
2023-03-24T18:58:30.993Z,47.39
2023-03-24T19:00:58.721Z,47.73
2023-03-24T19:03:27.225Z,48.20
2023-03-24T19:05:53.977Z,47.65
2023-03-24T19:08:21.927Z,48.09
2023-03-24T19:10:49.163Z,47.60
2023-03-24T19:13:16.974Z,47.99
2023-03-24T19:15:47.746Z,47.49
2023-03-24T19:18:15.416Z,48.20
2023-03-24T19:20:42.132Z,48.20
2023-03-24T19:23:09.100Z,48.21
2023-03-24T19:25:35.672Z,48.31
2023-03-24T19:28:02.253Z,47.83
2023-03-24T19:30:29.455Z,48.43
2023-03-24T19:32:56.738Z,48.15
2023-03-24T19:35:24.005Z,48.41
2023-03-24T19:37:50.630Z,47.86
2023-03-24T19:40:17.398Z,47.87
2023-03-24T19:42:45.154Z,48.08
2023-03-24T19:45:13.878Z,48.53
2023-03-24T19:47:40.498Z,47.72
2023-03-24T19:50:08.127Z,48.18
2023-03-24T19:52:35.440Z,47.33
2023-03-24T19:55:02.488Z,48.03
2023-03-24T19:57:30.537Z,47.96
2023-03-24T19:59:57.515Z,48.04
2023-03-24T20:02:24.890Z,47.59
2023-03-24T20:04:55.047Z,47.70
2023-03-24T20:07:23.050Z,47.70
2023-03-24T20:09:49.648Z,48.21
2023-03-24T20:12:16.452Z,48.23
2023-03-24T20:14:43.021Z,47.53
2023-03-24T20:17:17.507Z,48.28
2023-03-24T20:19:44.557Z,48.07
2023-03-24T20:22:11.087Z,48.17
2023-03-24T20:24:40.676Z,47.51
2023-03-24T20:27:07.716Z,47.87
2023-03-24T20:29:34.631Z,48.32
2023-03-24T20:32:01.201Z,48.35
2023-03-24T20:34:27.745Z,47.59
2023-03-24T20:36:54.357Z,48.36
2023-03-24T20:39:20.941Z,48.31
2023-03-24T20:41:47.445Z,48.35
2023-03-24T20:44:14.030Z,48.76
2023-03-24T20:46:40.623Z,48.62
2023-03-24T20:49:08.655Z,48.76
2023-03-24T20:51:35.231Z,48.33
2023-03-24T20:54:01.912Z,48.77
2023-03-24T20:56:28.580Z,48.44
2023-03-24T20:58:55.139Z,49.21
2023-03-24T21:01:22.111Z,48.86
2023-03-24T21:03:50.405Z,49.37
2023-03-24T21:06:17.514Z,49.26
2023-03-24T21:08:45.321Z,49.35
2023-03-24T21:11:12.769Z,48.91
2023-03-24T21:13:39.914Z,48.74
2023-03-24T21:16:11.532Z,48.89
2023-03-24T21:18:38.888Z,49.30
2023-03-24T21:21:06.182Z,48.76
2023-03-24T21:23:34.256Z,48.51
2023-03-24T21:26:08.598Z,49.11
2023-03-24T21:28:35.118Z,49.26
2023-03-24T21:31:20.009Z,49.24
2023-03-24T21:33:46.608Z,49.08
2023-03-24T21:36:13.563Z,49.10
2023-03-24T21:38:40.501Z,49.18
2023-03-24T21:41:07.887Z,49.22
2023-03-24T21:43:34.956Z,49.27
2023-03-24T21:46:03.884Z,48.83
2023-03-24T21:48:32.837Z,49.20
2023-03-24T21:51:00.324Z,48.99
2023-03-24T21:53:26.845Z,49.16
2023-03-24T21:55:56.543Z,49.41
2023-03-24T21:58:23.438Z,49.15
2023-03-24T22:00:50.927Z,48.87
2023-03-24T22:03:17.930Z,49.29
2023-03-24T22:05:44.557Z,49.01
2023-03-24T22:08:12.177Z,49.28
2023-03-24T22:10:42.496Z,49.46
2023-03-24T22:13:10.321Z,49.13
2023-03-24T22:15:37.724Z,49.54
2023-03-24T22:18:04.427Z,49.24
2023-03-24T22:20:32.006Z,49.27
2023-03-24T22:22:59.974Z,49.69
2023-03-24T22:25:26.497Z,49.56
2023-03-24T22:27:56.014Z,48.84
2023-03-24T22:30:23.257Z,49.27
2023-03-24T22:32:49.932Z,49.17
2023-03-24T22:35:16.766Z,49.38
2023-03-24T22:37:43.340Z,48.96
2023-03-24T22:40:09.943Z,49.36
2023-03-24T22:42:36.585Z,48.79
2023-03-24T22:45:03.187Z,48.87
2023-03-24T22:47:29.764Z,48.80
2023-03-24T22:49:56.344Z,48.88
2023-03-24T22:52:22.983Z,49.17
2023-03-24T22:54:49.576Z,48.81
2023-03-24T22:57:17.654Z,48.76
2023-03-24T22:59:44.562Z,48.64
2023-03-24T23:02:11.078Z,48.75
2023-03-24T23:04:40.371Z,48.79
2023-03-24T23:07:07.648Z,49.18
2023-03-24T23:09:34.307Z,48.60
2023-03-24T23:12:00.881Z,48.56
2023-03-24T23:14:27.711Z,48.29
2023-03-24T23:16:56.374Z,48.97
2023-03-24T23:19:23.305Z,48.38
2023-03-24T23:21:50.037Z,48.49
2023-03-24T23:24:17.019Z,48.99
2023-03-24T23:26:43.609Z,48.64
2023-03-24T23:29:10.211Z,48.70
2023-03-24T23:31:36.978Z,48.97
2023-03-24T23:34:07.416Z,48.65
2023-03-24T23:36:34.226Z,48.48
2023-03-24T23:39:01.105Z,48.65
2023-03-24T23:41:27.721Z,48.49
2023-03-24T23:43:54.309Z,48.78
2023-03-24T23:46:22.039Z,48.72
2023-03-24T23:48:48.631Z,48.92
2023-03-24T23:51:15.674Z,48.68
2023-03-24T23:53:42.400Z,48.64
2023-03-24T23:56:11.224Z,48.64
2023-03-24T23:58:40.125Z,49.20
